createdAt,value
2022-08-04T00:01:54.295Z,1.37
2022-08-04T00:04:28.456Z,1.63
2022-08-04T00:07:01.354Z,1.50
2022-08-04T00:09:35.944Z,1.73
2022-08-04T00:12:06.666Z,1.33
2022-08-04T00:14:38.225Z,1.50
2022-08-04T00:19:47.780Z,1.30
2022-08-04T00:22:17.915Z,1.50
2022-08-04T00:24:45.632Z,1.50
2022-08-04T00:27:13.158Z,1.40
2022-08-04T00:29:40.682Z,1.27
2022-08-04T00:32:08.592Z,1.40
2022-08-04T00:34:37.151Z,1.63
2022-08-04T00:39:44.750Z,1.40
2022-08-04T00:42:38.068Z,1.60
2022-08-04T00:46:15.949Z,1.33
2022-08-04T00:48:44.655Z,1.30
2022-08-04T00:51:20.527Z,1.80
2022-08-04T00:54:01.508Z,1.40
2022-08-04T00:59:41.081Z,1.60
2022-08-04T01:02:17.624Z,1.90
2022-08-04T01:04:58.256Z,2.03
2022-08-04T01:07:51.530Z,1.63
2022-08-04T01:10:32.585Z,1.80
2022-08-04T01:13:19.562Z,1.67
2022-08-04T01:18:55.027Z,1.90
2022-08-04T01:21:52.006Z,1.40
2022-08-04T01:24:51.794Z,1.73
2022-08-04T01:27:35.683Z,1.67
2022-08-04T01:30:08.789Z,1.80
2022-08-04T01:32:39.441Z,1.47
2022-08-04T01:35:15.332Z,1.70
2022-08-04T01:42:55.115Z,1.67
2022-08-04T01:45:25.495Z,2.10
2022-08-04T01:47:55.253Z,1.77
2022-08-04T01:50:23.304Z,2.10
2022-08-04T01:52:54.816Z,1.67
2022-08-04T01:55:22.819Z,1.60
2022-08-04T01:57:52.422Z,1.50
2022-08-04T02:05:26.934Z,1.77
2022-08-04T02:08:21.901Z,1.63
2022-08-04T02:11:00.334Z,1.90
2022-08-04T02:13:37.075Z,1.60
2022-08-04T02:16:09.913Z,1.93
2022-08-04T02:18:46.703Z,1.80
2022-08-04T02:21:19.122Z,1.90
2022-08-04T02:29:02.006Z,1.90
2022-08-04T02:31:33.252Z,2.10
2022-08-04T02:34:08.107Z,2.20
2022-08-04T02:36:38.152Z,1.90
2022-08-04T02:39:07.153Z,1.97
2022-08-04T02:41:36.974Z,2.13
2022-08-04T02:44:07.090Z,1.60
2022-08-04T02:51:38.635Z,2.10
2022-08-04T02:54:07.574Z,1.70
2022-08-04T02:56:37.437Z,1.87
2022-08-04T02:59:08.786Z,1.80
2022-08-04T03:01:37.392Z,2.00
2022-08-04T03:04:33.782Z,1.90
2022-08-04T03:16:03.810Z,1.90
2022-08-04T03:19:06.888Z,2.10
2022-08-04T03:22:10.425Z,2.20
2022-08-04T03:25:06.891Z,1.80
2022-08-04T03:28:08.488Z,1.57
2022-08-04T03:30:51.711Z,1.93
2022-08-04T03:38:55.714Z,1.70
2022-08-04T03:41:51.784Z,1.60
2022-08-04T03:45:17.362Z,2.03
2022-08-04T03:48:14.142Z,1.70
2022-08-04T03:51:35.093Z,1.90
2022-08-04T03:54:47.542Z,1.63
2022-08-04T04:02:54.500Z,1.70
2022-08-04T04:06:00.297Z,1.90
2022-08-04T04:08:56.843Z,2.20
2022-08-04T04:12:16.745Z,2.20
2022-08-04T04:15:09.344Z,2.37
2022-08-04T04:18:19.331Z,2.00
2022-08-04T04:26:30.194Z,1.90
2022-08-04T04:29:22.314Z,1.73
2022-08-04T04:32:03.554Z,1.80
2022-08-04T04:34:46.403Z,1.80
2022-08-04T04:37:26.259Z,1.70
2022-08-04T04:40:09.281Z,2.00
2022-08-04T04:42:55.439Z,2.10
2022-08-04T04:53:02.223Z,2.00
2022-08-04T04:55:35.325Z,1.67
2022-08-04T04:58:04.283Z,2.03
2022-08-04T05:00:56.224Z,1.83
2022-08-04T05:03:43.402Z,2.00
2022-08-04T05:06:41.380Z,2.17
2022-08-04T05:14:32.127Z,1.90
2022-08-04T05:15:25.200Z,1.90
2022-08-04T05:17:55.841Z,1.90
2022-08-04T05:20:26.461Z,1.93
2022-08-04T05:22:58.941Z,2.07
2022-08-04T05:25:34.248Z,2.23
2022-08-04T05:28:06.511Z,1.87
2022-08-04T05:37:54.284Z,2.17
2022-08-04T05:40:29.864Z,2.07
2022-08-04T05:42:57.683Z,2.33
2022-08-04T05:45:25.671Z,2.37
2022-08-04T05:47:54.240Z,2.10
2022-08-04T05:50:23.591Z,2.80
2022-08-04T05:52:53.322Z,2.30
2022-08-04T05:58:48.315Z,2.30
2022-08-04T06:01:17.756Z,2.10
2022-08-04T06:03:48.443Z,2.07
2022-08-04T06:06:17.761Z,1.90
2022-08-04T06:08:45.204Z,2.20
2022-08-04T06:11:14.480Z,2.33
2022-08-04T06:13:51.378Z,2.50
2022-08-04T06:21:28.164Z,2.10
2022-08-04T06:23:57.824Z,1.90
2022-08-04T06:26:32.833Z,2.07
2022-08-04T06:29:01.584Z,2.07
2022-08-04T06:32:27.250Z,2.37
2022-08-04T06:34:31.174Z,2.40
2022-08-04T06:37:00.450Z,1.93
2022-08-04T06:44:35.351Z,2.20
2022-08-04T06:47:04.821Z,3.10
2022-08-04T06:49:32.471Z,1.93
2022-08-04T06:52:21.084Z,2.03
2022-08-04T06:54:50.838Z,2.00
2022-08-04T06:57:21.426Z,2.30
2022-08-04T06:59:54.254Z,2.17
2022-08-04T07:09:16.874Z,1.90
2022-08-04T07:11:45.344Z,2.20
2022-08-04T07:14:14.114Z,2.07
2022-08-04T07:16:42.701Z,2.20
2022-08-04T07:19:12.218Z,1.90
2022-08-04T07:21:42.100Z,2.07
2022-08-04T07:24:34.019Z,2.33
2022-08-04T07:27:02.209Z,2.07
2022-08-04T07:34:31.809Z,1.80
2022-08-04T07:37:00.744Z,2.00
2022-08-04T07:39:33.330Z,1.87
2022-08-04T07:42:19.460Z,1.90
2022-08-04T07:44:47.803Z,2.13
2022-08-04T07:47:15.778Z,2.10
2022-08-04T07:49:57.209Z,1.63
2022-08-04T07:57:40.610Z,2.00
2022-08-04T08:00:11.685Z,1.90
2022-08-04T08:02:39.934Z,2.10
2022-08-04T08:05:10.221Z,1.80
2022-08-04T08:07:50.514Z,1.80
2022-08-04T08:10:21.865Z,1.73
2022-08-04T08:12:52.122Z,1.90
2022-08-04T08:20:29.800Z,1.87
2022-08-04T08:22:57.547Z,1.90
2022-08-04T08:25:25.671Z,1.70
2022-08-04T08:27:56.221Z,1.83
2022-08-04T08:30:25.064Z,1.67
2022-08-04T08:33:05.796Z,2.03
2022-08-04T08:35:53.381Z,1.67
2022-08-04T08:42:10.864Z,1.67
2022-08-04T08:45:20.361Z,1.87
2022-08-04T08:48:07.312Z,2.07
2022-08-04T08:51:03.751Z,2.07
2022-08-04T08:53:51.471Z,1.67
2022-08-04T09:02:05.954Z,1.53
2022-08-04T09:05:03.444Z,1.90
2022-08-04T09:08:08.314Z,1.63
2022-08-04T09:10:42.452Z,1.97
2022-08-04T09:13:17.750Z,2.00
2022-08-04T09:15:54.415Z,1.40
2022-08-04T09:23:10.057Z,2.40
2022-08-04T09:25:46.901Z,1.20
2022-08-04T09:28:50.707Z,1.40
2022-08-04T09:31:16.142Z,1.40
2022-08-04T09:33:49.630Z,1.67
2022-08-04T09:36:28.996Z,1.73
2022-08-04T09:39:10.254Z,1.60
2022-08-04T09:46:50.841Z,1.67
2022-08-04T09:49:23.411Z,1.70
2022-08-04T09:52:05.544Z,1.38
2022-08-04T09:54:45.771Z,1.38
2022-08-04T09:57:35.401Z,1.58
2022-08-04T10:00:05.542Z,1.60
2022-08-04T10:02:39.656Z,1.38
2022-08-04T10:10:51.974Z,1.45
2022-08-04T10:13:28.699Z,1.80
2022-08-04T10:16:19.233Z,1.42
2022-08-04T10:18:59.338Z,1.67
2022-08-04T10:21:50.629Z,1.80
2022-08-04T10:24:37.389Z,1.90
2022-08-04T10:32:16.907Z,1.40
2022-08-04T10:34:54.463Z,1.73
2022-08-04T10:37:59.489Z,1.48
2022-08-04T10:40:36.445Z,1.55
2022-08-04T10:43:22.452Z,1.70
2022-08-04T10:45:57.991Z,1.92
2022-08-04T10:48:41.972Z,2.28
2022-08-04T10:56:24.141Z,2.10
2022-08-04T10:58:56.950Z,1.77
2022-08-04T11:02:00.165Z,2.10
2022-08-04T11:04:27.403Z,1.92
2022-08-04T11:06:56.563Z,2.25
2022-08-04T11:09:24.868Z,1.92
2022-08-04T11:12:01.462Z,2.05
2022-08-04T11:19:44.997Z,2.13
2022-08-04T11:22:24.106Z,1.70
2022-08-04T11:24:58.297Z,1.90
2022-08-04T11:27:34.261Z,2.05
2022-08-04T11:30:06.014Z,2.08
2022-08-04T11:32:40.113Z,2.17
2022-08-04T11:35:16.221Z,2.05
2022-08-04T11:42:53.933Z,1.83
2022-08-04T11:45:29.671Z,2.08
2022-08-04T11:48:02.991Z,1.67
2022-08-04T11:50:38.321Z,1.52
2022-08-04T11:53:07.011Z,1.60
2022-08-04T11:56:09.454Z,1.40
2022-08-04T11:58:25.325Z,1.10
2022-08-04T12:06:10.879Z,1.48
2022-08-04T12:08:54.373Z,1.40
2022-08-04T12:11:35.199Z,1.30
2022-08-04T12:14:16.701Z,1.20
2022-08-04T12:16:58.474Z,1.45
2022-08-04T12:19:43.757Z,1.40
2022-08-04T12:22:22.993Z,1.20
2022-08-04T12:31:01.144Z,1.65
2022-08-04T12:32:57.141Z,1.15
2022-08-04T12:35:31.313Z,1.45
2022-08-04T12:38:04.912Z,1.48
2022-08-04T12:40:39.512Z,1.30
2022-08-04T12:43:11.802Z,1.50
2022-08-04T12:45:48.702Z,1.58
2022-08-04T12:52:06.371Z,1.20
2022-08-04T12:54:01.604Z,1.25
2022-08-04T12:56:30.174Z,1.50
2022-08-04T12:59:05.584Z,1.30
2022-08-04T13:02:09.582Z,2.03
2022-08-04T13:04:29.280Z,1.23
2022-08-04T13:07:03.533Z,1.70
2022-08-04T13:16:31.172Z,1.40
2022-08-04T13:19:05.348Z,1.77
2022-08-04T13:21:50.433Z,1.60
2022-08-04T13:24:32.194Z,1.73
2022-08-04T13:27:05.673Z,1.35
2022-08-04T13:30:00.750Z,1.65
2022-08-04T13:32:29.364Z,1.60
2022-08-04T13:37:40.144Z,1.60
2022-08-04T13:40:12.613Z,1.65
2022-08-04T13:42:47.583Z,1.63
2022-08-04T13:45:19.406Z,1.92
2022-08-04T13:47:51.107Z,1.48
2022-08-04T13:50:22.743Z,1.92
2022-08-04T13:52:54.961Z,1.92
2022-08-04T13:58:12.111Z,2.13
2022-08-04T14:00:47.798Z,1.90
2022-08-04T14:03:25.530Z,1.83
2022-08-04T14:06:15.109Z,1.55
2022-08-04T14:08:51.924Z,1.85
2022-08-04T14:12:07.129Z,1.85
2022-08-04T14:14:19.251Z,1.85
2022-08-04T14:22:05.483Z,2.00
2022-08-04T14:24:33.023Z,1.85
2022-08-04T14:27:00.691Z,1.80
2022-08-04T14:29:37.873Z,1.63
2022-08-04T14:32:12.748Z,2.60
2022-08-04T14:34:44.750Z,1.90
2022-08-04T14:37:20.329Z,2.10
2022-08-04T14:47:01.955Z,1.90
2022-08-04T14:49:31.265Z,1.73
2022-08-04T14:52:02.301Z,2.20
2022-08-04T14:54:32.282Z,2.42
2022-08-04T14:57:03.822Z,2.22
2022-08-04T14:59:43.998Z,1.70
2022-08-04T15:02:29.594Z,2.08
2022-08-04T15:10:13.492Z,2.00
2022-08-04T15:12:44.235Z,2.20
2022-08-04T15:15:35.384Z,1.95
2022-08-04T15:18:01.735Z,1.85
2022-08-04T15:20:31.930Z,2.30
2022-08-04T15:23:00.074Z,1.95
2022-08-04T15:25:28.330Z,1.67
2022-08-04T15:33:02.992Z,1.90
2022-08-04T15:35:38.772Z,2.10
2022-08-04T15:38:10.694Z,1.75
2022-08-04T15:40:47.831Z,2.08
2022-08-04T15:53:14.541Z,1.80
2022-08-04T15:55:52.783Z,1.60
2022-08-04T15:58:23.176Z,2.00
2022-08-04T16:01:16.218Z,2.20
2022-08-04T16:04:00.230Z,1.85
2022-08-04T16:06:44.965Z,1.60
2022-08-04T16:09:24.573Z,1.75
2022-08-04T16:17:21.437Z,1.80
2022-08-04T16:20:10.336Z,2.08
2022-08-04T16:22:40.326Z,2.08
2022-08-04T16:25:09.777Z,1.95
2022-08-04T16:27:40.929Z,2.22
2022-08-04T16:30:14.426Z,1.77
2022-08-04T16:32:55.067Z,2.20
2022-08-04T16:38:19.193Z,1.95
2022-08-04T16:40:55.157Z,1.63
2022-08-04T16:43:23.456Z,1.23
2022-08-04T16:45:59.516Z,1.70
2022-08-04T16:48:28.545Z,1.37
2022-08-04T16:51:04.677Z,1.53
2022-08-04T16:54:04.151Z,1.60
2022-08-04T17:01:49.129Z,1.70
2022-08-04T17:04:16.787Z,1.70
2022-08-04T17:06:47.039Z,2.07
2022-08-04T17:09:16.656Z,1.60
2022-08-04T17:11:45.518Z,1.40
2022-08-04T17:14:13.050Z,1.77
2022-08-04T17:16:43.423Z,1.67
2022-08-04T17:24:17.966Z,1.57
2022-08-04T17:26:53.555Z,1.93
2022-08-04T17:29:43.622Z,1.70
2022-08-04T17:32:17.677Z,1.80
2022-08-04T17:34:49.652Z,1.40
2022-08-04T17:37:38.523Z,1.20
2022-08-04T17:40:13.547Z,1.57
2022-08-04T17:47:52.885Z,1.50
2022-08-04T17:50:27.264Z,1.80
2022-08-04T17:53:03.044Z,1.60
2022-08-04T17:55:41.007Z,1.80
2022-08-04T17:58:20.546Z,1.40
2022-08-04T18:03:51.752Z,1.50
2022-08-04T18:11:29.894Z,1.90
2022-08-04T18:14:09.566Z,1.70
2022-08-04T18:16:44.004Z,1.67
2022-08-04T18:19:14.267Z,1.50
2022-08-04T18:21:46.093Z,1.80
2022-08-04T18:24:34.757Z,1.67
2022-08-04T18:27:17.320Z,1.30
2022-08-04T18:38:02.931Z,1.50
2022-08-04T18:40:17.232Z,2.10
2022-08-04T18:42:45.514Z,1.60
2022-08-04T18:45:13.859Z,2.00
2022-08-04T18:47:58.668Z,1.40
2022-08-04T18:51:01.291Z,1.43
2022-08-04T18:53:16.848Z,2.67
2022-08-04T19:00:46.156Z,1.77
2022-08-04T19:03:16.495Z,1.87
2022-08-04T19:05:51.944Z,1.70
2022-08-04T19:08:33.452Z,1.60
2022-08-04T19:11:28.708Z,1.40
2022-08-04T19:13:58.286Z,1.60
2022-08-04T19:16:30.798Z,1.90
2022-08-04T19:24:30.194Z,1.90
2022-08-04T19:26:51.847Z,1.83
2022-08-04T19:29:20.257Z,2.37
2022-08-04T19:31:48.777Z,1.93
2022-08-04T19:34:33.021Z,2.47
2022-08-04T19:37:05.418Z,2.00
2022-08-04T19:39:40.463Z,2.37
2022-08-04T19:48:11.353Z,2.33
2022-08-04T19:50:04.667Z,2.37
2022-08-04T19:52:38.995Z,2.10
2022-08-04T19:55:10.804Z,2.53
2022-08-04T19:57:43.889Z,2.30
2022-08-04T20:00:32.923Z,2.50
2022-08-04T20:03:13.400Z,2.53
2022-08-04T20:08:28.258Z,2.47
2022-08-04T20:10:56.195Z,2.27
2022-08-04T20:13:36.905Z,2.70
2022-08-04T20:16:28.469Z,2.03
2022-08-04T20:18:55.596Z,2.40
2022-08-04T20:21:53.838Z,2.87
2022-08-04T20:24:39.482Z,2.67
2022-08-04T20:32:10.177Z,2.70
2022-08-04T20:34:37.978Z,2.70
2022-08-04T20:37:10.378Z,2.47
2022-08-04T20:39:38.974Z,2.23
2022-08-04T20:42:07.570Z,2.27
2022-08-04T20:44:46.369Z,2.40
2022-08-04T20:47:15.947Z,2.33
2022-08-04T20:52:22.915Z,3.03
2022-08-04T20:57:48.034Z,2.33
2022-08-04T21:00:17.625Z,2.63
2022-08-04T21:02:56.326Z,2.60
2022-08-04T21:05:24.226Z,3.00
2022-08-04T21:07:56.635Z,2.77
2022-08-04T21:15:58.716Z,2.93
2022-08-04T21:18:17.186Z,2.50
2022-08-04T21:20:45.085Z,2.73
2022-08-04T21:23:15.515Z,2.57
2022-08-04T21:25:45.047Z,2.60
2022-08-04T21:28:21.018Z,2.70
2022-08-04T21:30:55.944Z,3.13
2022-08-04T21:36:04.086Z,2.77
2022-08-04T21:38:37.484Z,2.37
2022-08-04T21:41:08.088Z,2.67
2022-08-04T21:43:43.003Z,2.80
2022-08-04T21:46:11.364Z,2.33
2022-08-04T21:48:38.904Z,2.53
2022-08-04T21:51:55.695Z,2.60
2022-08-04T21:57:03.537Z,3.10
2022-08-04T21:59:31.290Z,2.37
2022-08-04T22:02:00.768Z,3.17
2022-08-04T22:04:28.965Z,2.50
2022-08-04T22:06:56.426Z,2.67
2022-08-04T22:09:24.277Z,3.27
2022-08-04T22:11:56.369Z,3.37
2022-08-04T22:14:29.646Z,3.00
2022-08-04T22:21:57.404Z,2.90
2022-08-04T22:24:24.402Z,2.70
2022-08-04T22:26:51.815Z,3.40
2022-08-04T22:29:18.780Z,2.63
2022-08-04T22:31:55.621Z,2.70
2022-08-04T22:34:24.278Z,2.87
2022-08-04T22:36:53.354Z,3.20
2022-08-04T22:42:13.213Z,2.63
2022-08-04T22:44:40.696Z,4.00
2022-08-04T22:47:10.127Z,2.67
2022-08-04T22:49:56.587Z,2.93
2022-08-04T22:52:55.670Z,2.93
2022-08-04T22:55:23.844Z,2.60
2022-08-04T22:58:04.673Z,2.83
2022-08-04T23:05:39.047Z,2.70
2022-08-04T23:08:08.854Z,2.60
2022-08-04T23:10:37.534Z,3.33
2022-08-04T23:13:08.745Z,3.13
2022-08-04T23:15:38.736Z,3.40
2022-08-04T23:18:06.434Z,2.67
2022-08-04T23:20:39.700Z,3.00
2022-08-04T23:26:11.468Z,3.00
2022-08-04T23:28:38.502Z,2.90
2022-08-04T23:31:05.996Z,3.23
2022-08-04T23:33:51.600Z,2.90
2022-08-04T23:36:19.587Z,3.10
2022-08-04T23:39:00.166Z,3.67
2022-08-04T23:41:53.432Z,3.23
2022-08-04T23:49:22.384Z,3.40
2022-08-04T23:51:49.891Z,3.23
2022-08-04T23:54:25.759Z,2.70
2022-08-04T23:57:00.551Z,3.03
2022-08-04T23:59:52.759Z,2.83
